TAF KLEB
AMD KLEB 081933Z 0820/0918 35004KT 3SM -SN BR OVC020 TEMPO 0820/0822 1 1/2SM -SN OVC020 FM090000 06004KT 2SM -SN SCT020 BKN030 FM090900 VRB03KT P6SM SCT050 BKN100=
METAR KLEB
WC KLEB
WS KLEB
WV KLEB